sensor_id;sensor_type;location;lat;lon;timestamp;P1;P2;P0
70915;PMS5003;58557;50.982;-3.222;2023-03-02T00:01:25;9;9;
70915;PMS5003;58557;50.982;-3.222;2023-03-02T00:03:50;12;8;
70915;PMS5003;58557;50.982;-3.222;2023-03-02T00:06:17;17;14;
70915;PMS5003;58557;50.982;-3.222;2023-03-02T00:08:41;8;8;
70915;PMS5003;58557;50.982;-3.222;2023-03-02T00:11:06;12;9;
70915;PMS5003;58557;50.982;-3.222;2023-03-02T00:13:31;16;13;
70915;PMS5003;58557;50.982;-3.222;2023-03-02T00:15:56;11;11;
70915;PMS5003;58557;50.982;-3.222;2023-03-02T00:18:22;21;16;
70915;PMS5003;58557;50.982;-3.222;2023-03-02T00:20:48;12;9;
70915;PMS5003;58557;50.982;-3.222;2023-03-02T00:23:13;13;11;
70915;PMS5003;58557;50.982;-3.222;2023-03-02T00:25:38;11;7;
70915;PMS5003;58557;50.982;-3.222;2023-03-02T00:28:03;13;11;
70915;PMS5003;58557;50.982;-3.222;2023-03-02T00:30:29;13;9;
70915;PMS5003;58557;50.982;-3.222;2023-03-02T00:32:54;21;18;
70915;PMS5003;58557;50.982;-3.222;2023-03-02T00:35:20;16;14;
70915;PMS5003;58557;50.982;-3.222;2023-03-02T00:37:45;14;14;
70915;PMS5003;58557;50.982;-3.222;2023-03-02T00:40:10;17;13;
70915;PMS5003;58557;50.982;-3.222;2023-03-02T00:42:36;12;12;
70915;PMS5003;58557;50.982;-3.222;2023-03-02T00:45:01;16;14;
70915;PMS5003;58557;50.982;-3.222;2023-03-02T00:47:27;13;13;
70915;PMS5003;58557;50.982;-3.222;2023-03-02T00:49:52;9;7;
70915;PMS5003;58557;50.982;-3.222;2023-03-02T00:52:17;13;9;
70915;PMS5003;58557;50.982;-3.222;2023-03-02T00:54:42;17;13;
70915;PMS5003;58557;50.982;-3.222;2023-03-02T00:57:08;11;11;
70915;PMS5003;58557;50.982;-3.222;2023-03-02T00:59:33;13;8;
70915;PMS5003;58557;50.982;-3.222;2023-03-02T01:01:58;11;8;
70915;PMS5003;58557;50.982;-3.222;2023-03-02T01:04:23;11;7;
70915;PMS5003;58557;50.982;-3.222;2023-03-02T01:06:48;6;6;
70915;PMS5003;58557;50.982;-3.222;2023-03-02T01:09:14;7;7;
70915;PMS5003;58557;50.982;-3.222;2023-03-02T01:11:39;4;4;
70915;PMS5003;58557;50.982;-3.222;2023-03-02T01:14:04;11;8;
70915;PMS5003;58557;50.982;-3.222;2023-03-02T01:16:31;11;8;
70915;PMS5003;58557;50.982;-3.222;2023-03-02T01:18:54;9;7;
70915;PMS5003;58557;50.982;-3.222;2023-03-02T01:21:20;9;7;
70915;PMS5003;58557;50.982;-3.222;2023-03-02T01:23:45;12;8;
70915;PMS5003;58557;50.982;-3.222;2023-03-02T01:26:11;9;6;
70915;PMS5003;58557;50.982;-3.222;2023-03-02T01:28:36;4;4;
70915;PMS5003;58557;50.982;-3.222;2023-03-02T01:31:02;7;7;
70915;PMS5003;58557;50.982;-3.222;2023-03-02T01:33:27;8;7;
70915;PMS5003;58557;50.982;-3.222;2023-03-02T01:35:52;7;7;
70915;PMS5003;58557;50.982;-3.222;2023-03-02T01:38:17;7;6;
70915;PMS5003;58557;50.982;-3.222;2023-03-02T01:40:42;6;6;
70915;PMS5003;58557;50.982;-3.222;2023-03-02T01:43:09;7;6;
70915;PMS5003;58557;50.982;-3.222;2023-03-02T01:45:42;4;4;
70915;PMS5003;58557;50.982;-3.222;2023-03-02T01:47:58;4;4;
70915;PMS5003;58557;50.982;-3.222;2023-03-02T01:50:23;3;3;
70915;PMS5003;58557;50.982;-3.222;2023-03-02T01:52:48;6;6;
70915;PMS5003;58557;50.982;-3.222;2023-03-02T01:55:13;4;4;
70915;PMS5003;58557;50.982;-3.222;2023-03-02T01:57:39;4;4;
70915;PMS5003;58557;50.982;-3.222;2023-03-02T02:00:03;4;4;
70915;PMS5003;58557;50.982;-3.222;2023-03-02T02:02:28;3;3;
70915;PMS5003;58557;50.982;-3.222;2023-03-02T02:04:54;6;6;
70915;PMS5003;58557;50.982;-3.222;2023-03-02T02:07:19;6;6;
70915;PMS5003;58557;50.982;-3.222;2023-03-02T02:09:45;3;3;
70915;PMS5003;58557;50.982;-3.222;2023-03-02T02:12:11;4;4;
70915;PMS5003;58557;50.982;-3.222;2023-03-02T02:14:35;3;3;
70915;PMS5003;58557;50.982;-3.222;2023-03-02T02:17:00;3;2;
70915;PMS5003;58557;50.982;-3.222;2023-03-02T02:19:34;11;6;
70915;PMS5003;58557;50.982;-3.222;2023-03-02T02:21:51;3;3;
70915;PMS5003;58557;50.982;-3.222;2023-03-02T02:24:17;6;4;
70915;PMS5003;58557;50.982;-3.222;2023-03-02T02:26:42;8;4;
70915;PMS5003;58557;50.982;-3.222;2023-03-02T02:29:07;4;4;
70915;PMS5003;58557;50.982;-3.222;2023-03-02T02:31:32;6;6;
70915;PMS5003;58557;50.982;-3.222;2023-03-02T02:33:58;4;3;
70915;PMS5003;58557;50.982;-3.222;2023-03-02T02:36:22;6;6;
70915;PMS5003;58557;50.982;-3.222;2023-03-02T02:38:47;6;6;
70915;PMS5003;58557;50.982;-3.222;2023-03-02T02:41:14;6;4;
70915;PMS5003;58557;50.982;-3.222;2023-03-02T02:43:37;7;4;
70915;PMS5003;58557;50.982;-3.222;2023-03-02T02:46:02;7;7;
70915;PMS5003;58557;50.982;-3.222;2023-03-02T02:48:27;6;6;
70915;PMS5003;58557;50.982;-3.222;2023-03-02T02:50:52;7;6;
70915;PMS5003;58557;50.982;-3.222;2023-03-02T02:53:18;9;8;
70915;PMS5003;58557;50.982;-3.222;2023-03-02T02:55:42;12;9;
70915;PMS5003;58557;50.982;-3.222;2023-03-02T02:58:24;11;8;
70915;PMS5003;58557;50.982;-3.222;2023-03-02T03:00:33;9;8;
70915;PMS5003;58557;50.982;-3.222;2023-03-02T03:02:59;12;8;
70915;PMS5003;58557;50.982;-3.222;2023-03-02T03:05:23;7;7;
70915;PMS5003;58557;50.982;-3.222;2023-03-02T03:07:49;8;8;
70915;PMS5003;58557;50.982;-3.222;2023-03-02T03:10:14;13;12;
70915;PMS5003;58557;50.982;-3.222;2023-03-02T03:12:39;12;8;
70915;PMS5003;58557;50.982;-3.222;2023-03-02T03:15:05;8;8;
70915;PMS5003;58557;50.982;-3.222;2023-03-02T03:17:30;9;7;
70915;PMS5003;58557;50.982;-3.222;2023-03-02T03:19:55;9;8;
70915;PMS5003;58557;50.982;-3.222;2023-03-02T03:22:20;9;8;
70915;PMS5003;58557;50.982;-3.222;2023-03-02T03:24:45;12;9;
70915;PMS5003;58557;50.982;-3.222;2023-03-02T03:27:11;11;11;
70915;PMS5003;58557;50.982;-3.222;2023-03-02T03:29:37;11;11;
70915;PMS5003;58557;50.982;-3.222;2023-03-02T03:32:02;9;7;
70915;PMS5003;58557;50.982;-3.222;2023-03-02T03:34:26;12;11;
70915;PMS5003;58557;50.982;-3.222;2023-03-02T03:36:52;8;8;
70915;PMS5003;58557;50.982;-3.222;2023-03-02T03:39:17;12;11;
70915;PMS5003;58557;50.982;-3.222;2023-03-02T03:41:43;17;17;
70915;PMS5003;58557;50.982;-3.222;2023-03-02T03:44:08;13;12;
70915;PMS5003;58557;50.982;-3.222;2023-03-02T03:46:33;13;12;
70915;PMS5003;58557;50.982;-3.222;2023-03-02T03:48:59;13;12;
70915;PMS5003;58557;50.982;-3.222;2023-03-02T03:51:24;18;17;
70915;PMS5003;58557;50.982;-3.222;2023-03-02T03:53:49;8;8;
70915;PMS5003;58557;50.982;-3.222;2023-03-02T03:56:15;17;14;
70915;PMS5003;58557;50.982;-3.222;2023-03-02T03:58:40;15;12;
70915;PMS5003;58557;50.982;-3.222;2023-03-02T04:01:05;16;15;
70915;PMS5003;58557;50.982;-3.222;2023-03-02T04:03:30;16;15;
70915;PMS5003;58557;50.982;-3.222;2023-03-02T04:05:55;20;13;
70915;PMS5003;58557;50.982;-3.222;2023-03-02T04:08:21;11;11;
70915;PMS5003;58557;50.982;-3.222;2023-03-02T04:10:47;17;15;
70915;PMS5003;58557;50.982;-3.222;2023-03-02T04:13:12;13;13;
70915;PMS5003;58557;50.982;-3.222;2023-03-02T04:15:38;13;12;
70915;PMS5003;58557;50.982;-3.222;2023-03-02T04:18:03;13;13;
70915;PMS5003;58557;50.982;-3.222;2023-03-02T04:20:28;13;10;
70915;PMS5003;58557;50.982;-3.222;2023-03-02T04:22:54;11;11;
70915;PMS5003;58557;50.982;-3.222;2023-03-02T04:25:20;18;12;
70915;PMS5003;58557;50.982;-3.222;2023-03-02T04:27:45;15;13;
70915;PMS5003;58557;50.982;-3.222;2023-03-02T04:30:11;20;20;
70915;PMS5003;58557;50.982;-3.222;2023-03-02T04:32:36;12;12;
70915;PMS5003;58557;50.982;-3.222;2023-03-02T04:35:02;17;12;
70915;PMS5003;58557;50.982;-3.222;2023-03-02T04:37:27;20;18;
70915;PMS5003;58557;50.982;-3.222;2023-03-02T04:39:52;15;13;
70915;PMS5003;58557;50.982;-3.222;2023-03-02T04:42:18;16;12;
70915;PMS5003;58557;50.982;-3.222;2023-03-02T04:44:43;17;15;
70915;PMS5003;58557;50.982;-3.222;2023-03-02T04:47:08;15;11;
70915;PMS5003;58557;50.982;-3.222;2023-03-02T04:49:34;17;15;
70915;PMS5003;58557;50.982;-3.222;2023-03-02T04:51:59;12;12;
70915;PMS5003;58557;50.982;-3.222;2023-03-02T04:54:25;11;11;
70915;PMS5003;58557;50.982;-3.222;2023-03-02T04:56:49;12;11;
70915;PMS5003;58557;50.982;-3.222;2023-03-02T04:59:15;16;12;
70915;PMS5003;58557;50.982;-3.222;2023-03-02T05:01:40;16;13;
70915;PMS5003;58557;50.982;-3.222;2023-03-02T05:04:05;11;11;
70915;PMS5003;58557;50.982;-3.222;2023-03-02T05:06:30;10;10;
70915;PMS5003;58557;50.982;-3.222;2023-03-02T05:08:56;17;15;
70915;PMS5003;58557;50.982;-3.222;2023-03-02T05:11:21;12;12;
70915;PMS5003;58557;50.982;-3.222;2023-03-02T05:13:46;17;12;
70915;PMS5003;58557;50.982;-3.222;2023-03-02T05:16:12;17;15;
70915;PMS5003;58557;50.982;-3.222;2023-03-02T05:18:37;17;16;
70915;PMS5003;58557;50.982;-3.222;2023-03-02T05:21:03;16;15;
70915;PMS5003;58557;50.982;-3.222;2023-03-02T05:23:28;11;11;
70915;PMS5003;58557;50.982;-3.222;2023-03-02T05:25:54;19;15;
70915;PMS5003;58557;50.982;-3.222;2023-03-02T05:28:20;24;17;
70915;PMS5003;58557;50.982;-3.222;2023-03-02T05:30:44;15;14;
70915;PMS5003;58557;50.982;-3.222;2023-03-02T05:33:10;14;12;
70915;PMS5003;58557;50.982;-3.222;2023-03-02T05:35:35;19;15;
70915;PMS5003;58557;50.982;-3.222;2023-03-02T05:38:00;20;14;
70915;PMS5003;58557;50.982;-3.222;2023-03-02T05:40:26;17;16;
70915;PMS5003;58557;50.982;-3.222;2023-03-02T05:42:52;20;13;
70915;PMS5003;58557;50.982;-3.222;2023-03-02T05:45:19;19;15;
70915;PMS5003;58557;50.982;-3.222;2023-03-02T05:47:42;12;11;
70915;PMS5003;58557;50.982;-3.222;2023-03-02T05:50:08;16;12;
70915;PMS5003;58557;50.982;-3.222;2023-03-02T05:52:33;20;20;
70915;PMS5003;58557;50.982;-3.222;2023-03-02T05:54:58;13;12;
70915;PMS5003;58557;50.982;-3.222;2023-03-02T05:57:23;14;12;
70915;PMS5003;58557;50.982;-3.222;2023-03-02T05:59:49;22;20;
70915;PMS5003;58557;50.982;-3.222;2023-03-02T06:02:15;19;12;
70915;PMS5003;58557;50.982;-3.222;2023-03-02T06:04:40;15;14;
70915;PMS5003;58557;50.982;-3.222;2023-03-02T06:07:05;15;14;
70915;PMS5003;58557;50.982;-3.222;2023-03-02T06:09:31;19;16;
70915;PMS5003;58557;50.982;-3.222;2023-03-02T06:11:56;20;14;
70915;PMS5003;58557;50.982;-3.222;2023-03-02T06:14:21;15;12;
70915;PMS5003;58557;50.982;-3.222;2023-03-02T06:16:47;15;12;
70915;PMS5003;58557;50.982;-3.222;2023-03-02T06:19:12;15;15;
70915;PMS5003;58557;50.982;-3.222;2023-03-02T06:21:37;15;15;
70915;PMS5003;58557;50.982;-3.222;2023-03-02T06:24:03;19;14;
70915;PMS5003;58557;50.982;-3.222;2023-03-02T06:26:28;14;12;
70915;PMS5003;58557;50.982;-3.222;2023-03-02T06:28:53;26;15;
70915;PMS5003;58557;50.982;-3.222;2023-03-02T06:31:18;19;15;
70915;PMS5003;58557;50.982;-3.222;2023-03-02T06:33:44;17;16;
70915;PMS5003;58557;50.982;-3.222;2023-03-02T06:36:09;21;17;
70915;PMS5003;58557;50.982;-3.222;2023-03-02T06:38:34;22;19;
70915;PMS5003;58557;50.982;-3.222;2023-03-02T06:40:59;15;14;
70915;PMS5003;58557;50.982;-3.222;2023-03-02T06:43:24;17;12;
70915;PMS5003;58557;50.982;-3.222;2023-03-02T06:45:49;15;14;
70915;PMS5003;58557;50.982;-3.222;2023-03-02T06:48:15;24;23;
70915;PMS5003;58557;50.982;-3.222;2023-03-02T06:50:40;25;15;
70915;PMS5003;58557;50.982;-3.222;2023-03-02T06:53:06;19;17;
70915;PMS5003;58557;50.982;-3.222;2023-03-02T06:55:32;23;16;
70915;PMS5003;58557;50.982;-3.222;2023-03-02T06:57:57;18;17;
70915;PMS5003;58557;50.982;-3.222;2023-03-02T07:00:23;16;15;
70915;PMS5003;58557;50.982;-3.222;2023-03-02T07:02:48;20;16;
70915;PMS5003;58557;50.982;-3.222;2023-03-02T07:05:13;21;16;
70915;PMS5003;58557;50.982;-3.222;2023-03-02T07:07:39;28;25;
70915;PMS5003;58557;50.982;-3.222;2023-03-02T07:10:04;30;21;
70915;PMS5003;58557;50.982;-3.222;2023-03-02T07:12:29;21;21;
70915;PMS5003;58557;50.982;-3.222;2023-03-02T07:14:54;25;20;
70915;PMS5003;58557;50.982;-3.222;2023-03-02T07:17:20;15;15;
70915;PMS5003;58557;50.982;-3.222;2023-03-02T07:19:45;19;19;
70915;PMS5003;58557;50.982;-3.222;2023-03-02T07:22:10;15;12;
70915;PMS5003;58557;50.982;-3.222;2023-03-02T07:24:36;23;21;
70915;PMS5003;58557;50.982;-3.222;2023-03-02T07:27:01;24;17;
70915;PMS5003;58557;50.982;-3.222;2023-03-02T07:29:27;22;20;
70915;PMS5003;58557;50.982;-3.222;2023-03-02T07:31:52;19;16;
70915;PMS5003;58557;50.982;-3.222;2023-03-02T07:34:17;19;19;
70915;PMS5003;58557;50.982;-3.222;2023-03-02T07:36:43;21;19;
70915;PMS5003;58557;50.982;-3.222;2023-03-02T07:39:09;19;14;
70915;PMS5003;58557;50.982;-3.222;2023-03-02T07:41:34;16;16;
70915;PMS5003;58557;50.982;-3.222;2023-03-02T07:44:00;25;22;
70915;PMS5003;58557;50.982;-3.222;2023-03-02T07:46:25;14;11;
70915;PMS5003;58557;50.982;-3.222;2023-03-02T07:48:50;14;14;
70915;PMS5003;58557;50.982;-3.222;2023-03-02T07:51:15;25;19;
70915;PMS5003;58557;50.982;-3.222;2023-03-02T07:53:40;17;12;
70915;PMS5003;58557;50.982;-3.222;2023-03-02T07:56:06;26;25;
70915;PMS5003;58557;50.982;-3.222;2023-03-02T07:58:31;16;16;
70915;PMS5003;58557;50.982;-3.222;2023-03-02T08:00:56;26;21;
70915;PMS5003;58557;50.982;-3.222;2023-03-02T08:03:22;19;16;
70915;PMS5003;58557;50.982;-3.222;2023-03-02T08:05:47;24;19;
70915;PMS5003;58557;50.982;-3.222;2023-03-02T08:08:13;20;16;
70915;PMS5003;58557;50.982;-3.222;2023-03-02T08:10:38;21;20;
70915;PMS5003;58557;50.982;-3.222;2023-03-02T08:13:09;21;19;
70915;PMS5003;58557;50.982;-3.222;2023-03-02T08:15:29;20;17;
70915;PMS5003;58557;50.982;-3.222;2023-03-02T08:17:55;22;19;
70915;PMS5003;58557;50.982;-3.222;2023-03-02T08:20:21;26;24;
70915;PMS5003;58557;50.982;-3.222;2023-03-02T08:22:47;16;15;
70915;PMS5003;58557;50.982;-3.222;2023-03-02T08:25:12;20;16;
70915;PMS5003;58557;50.982;-3.222;2023-03-02T08:27:38;20;16;
70915;PMS5003;58557;50.982;-3.222;2023-03-02T08:30:03;16;13;
70915;PMS5003;58557;50.982;-3.222;2023-03-02T08:32:28;17;17;
70915;PMS5003;58557;50.982;-3.222;2023-03-02T08:34:53;16;16;
70915;PMS5003;58557;50.982;-3.222;2023-03-02T08:37:18;18;17;
70915;PMS5003;58557;50.982;-3.222;2023-03-02T08:39:44;22;21;
70915;PMS5003;58557;50.982;-3.222;2023-03-02T08:42:10;20;17;
70915;PMS5003;58557;50.982;-3.222;2023-03-02T08:44:35;21;21;
70915;PMS5003;58557;50.982;-3.222;2023-03-02T08:47:01;21;21;
70915;PMS5003;58557;50.982;-3.222;2023-03-02T08:49:26;21;21;
70915;PMS5003;58557;50.982;-3.222;2023-03-02T08:51:51;28;25;
70915;PMS5003;58557;50.982;-3.222;2023-03-02T08:54:16;28;26;
70915;PMS5003;58557;50.982;-3.222;2023-03-02T08:56:42;23;21;
70915;PMS5003;58557;50.982;-3.222;2023-03-02T08:59:08;32;26;
70915;PMS5003;58557;50.982;-3.222;2023-03-02T09:01:34;24;19;
70915;PMS5003;58557;50.982;-3.222;2023-03-02T09:03:58;30;28;
70915;PMS5003;58557;50.982;-3.222;2023-03-02T09:06:24;31;23;
70915;PMS5003;58557;50.982;-3.222;2023-03-02T09:08:49;33;31;
70915;PMS5003;58557;50.982;-3.222;2023-03-02T09:11:14;26;21;
70915;PMS5003;58557;50.982;-3.222;2023-03-02T09:13:39;26;26;
70915;PMS5003;58557;50.982;-3.222;2023-03-02T09:16:05;27;22;
70915;PMS5003;58557;50.982;-3.222;2023-03-02T09:18:30;43;38;
70915;PMS5003;58557;50.982;-3.222;2023-03-02T09:20:56;34;30;
70915;PMS5003;58557;50.982;-3.222;2023-03-02T09:23:22;36;28;
70915;PMS5003;58557;50.982;-3.222;2023-03-02T09:25:47;33;29;
70915;PMS5003;58557;50.982;-3.222;2023-03-02T09:28:13;32;32;
70915;PMS5003;58557;50.982;-3.222;2023-03-02T09:30:39;30;27;
70915;PMS5003;58557;50.982;-3.222;2023-03-02T09:33:04;31;23;
70915;PMS5003;58557;50.982;-3.222;2023-03-02T09:35:29;34;31;
70915;PMS5003;58557;50.982;-3.222;2023-03-02T09:37:55;40;37;
70915;PMS5003;58557;50.982;-3.222;2023-03-02T09:40:20;37;31;
70915;PMS5003;58557;50.982;-3.222;2023-03-02T09:42:53;37;35;
70915;PMS5003;58557;50.982;-3.222;2023-03-02T09:45:14;41;35;
70915;PMS5003;58557;50.982;-3.222;2023-03-02T09:47:37;47;45;
70915;PMS5003;58557;50.982;-3.222;2023-03-02T09:50:05;32;31;
70915;PMS5003;58557;50.982;-3.222;2023-03-02T09:52:29;48;37;
70915;PMS5003;58557;50.982;-3.222;2023-03-02T09:54:53;47;41;
70915;PMS5003;58557;50.982;-3.222;2023-03-02T09:57:19;42;39;
70915;PMS5003;58557;50.982;-3.222;2023-03-02T09:59:44;36;35;
70915;PMS5003;58557;50.982;-3.222;2023-03-02T10:02:18;45;36;
70915;PMS5003;58557;50.982;-3.222;2023-03-02T10:04:35;50;45;
70915;PMS5003;58557;50.982;-3.222;2023-03-02T10:07:00;39;34;
70915;PMS5003;58557;50.982;-3.222;2023-03-02T10:09:25;44;40;
70915;PMS5003;58557;50.982;-3.222;2023-03-02T10:11:55;39;38;
70915;PMS5003;58557;50.982;-3.222;2023-03-02T10:14:19;17;17;
70915;PMS5003;58557;50.982;-3.222;2023-03-02T10:16:45;46;35;
70915;PMS5003;58557;50.982;-3.222;2023-03-02T10:19:10;47;43;
70915;PMS5003;58557;50.982;-3.222;2023-03-02T10:21:36;46;41;
70915;PMS5003;58557;50.982;-3.222;2023-03-02T10:24:00;43;41;
70915;PMS5003;58557;50.982;-3.222;2023-03-02T10:26:28;44;38;
70915;PMS5003;58557;50.982;-3.222;2023-03-02T10:28:53;44;41;
70915;PMS5003;58557;50.982;-3.222;2023-03-02T10:31:20;47;41;
70915;PMS5003;58557;50.982;-3.222;2023-03-02T10:33:41;55;49;
70915;PMS5003;58557;50.982;-3.222;2023-03-02T10:36:22;49;43;
70915;PMS5003;58557;50.982;-3.222;2023-03-02T10:38:33;49;45;
70915;PMS5003;58557;50.982;-3.222;2023-03-02T10:40:58;43;41;
70915;PMS5003;58557;50.982;-3.222;2023-03-02T10:43:26;54;48;
70915;PMS5003;58557;50.982;-3.222;2023-03-02T10:48:14;53;38;
70915;PMS5003;58557;50.982;-3.222;2023-03-02T10:50:41;50;47;
70915;PMS5003;58557;50.982;-3.222;2023-03-02T10:53:06;58;52;
70915;PMS5003;58557;50.982;-3.222;2023-03-02T10:55:31;48;42;
70915;PMS5003;58557;50.982;-3.222;2023-03-02T10:57:59;61;54;
70915;PMS5003;58557;50.982;-3.222;2023-03-02T11:00:27;58;49;
70915;PMS5003;58557;50.982;-3.222;2023-03-02T11:02:53;61;54;
70915;PMS5003;58557;50.982;-3.222;2023-03-02T11:07:38;41;36;
70915;PMS5003;58557;50.982;-3.222;2023-03-02T11:10:06;44;41;
70915;PMS5003;58557;50.982;-3.222;2023-03-02T11:12:29;54;48;
70915;PMS5003;58557;50.982;-3.222;2023-03-02T11:15:10;52;48;
70915;PMS5003;58557;50.982;-3.222;2023-03-02T11:17:26;58;52;
70915;PMS5003;58557;50.982;-3.222;2023-03-02T11:19:51;51;45;
70915;PMS5003;58557;50.982;-3.222;2023-03-02T11:22:13;45;36;
70915;PMS5003;58557;50.982;-3.222;2023-03-02T11:24:38;42;36;
70915;PMS5003;58557;50.982;-3.222;2023-03-02T11:27:05;48;45;
70915;PMS5003;58557;50.982;-3.222;2023-03-02T11:29:28;49;44;
70915;PMS5003;58557;50.982;-3.222;2023-03-02T11:31:54;47;40;
70915;PMS5003;58557;50.982;-3.222;2023-03-02T11:34:23;42;39;
70915;PMS5003;58557;50.982;-3.222;2023-03-02T11:36:47;51;44;
70915;PMS5003;58557;50.982;-3.222;2023-03-02T11:39:10;39;37;
70915;PMS5003;58557;50.982;-3.222;2023-03-02T11:41:34;46;41;
70915;PMS5003;58557;50.982;-3.222;2023-03-02T11:44:05;36;33;
70915;PMS5003;58557;50.982;-3.222;2023-03-02T11:46:26;43;40;
70915;PMS5003;58557;50.982;-3.222;2023-03-02T11:48:52;46;40;
70915;PMS5003;58557;50.982;-3.222;2023-03-02T11:51:17;36;35;
70915;PMS5003;58557;50.982;-3.222;2023-03-02T11:53:42;43;38;
70915;PMS5003;58557;50.982;-3.222;2023-03-02T11:56:07;49;42;
70915;PMS5003;58557;50.982;-3.222;2023-03-02T11:58:37;36;33;
70915;PMS5003;58557;50.982;-3.222;2023-03-02T12:00:57;37;33;
70915;PMS5003;58557;50.982;-3.222;2023-03-02T12:03:38;42;37;
70915;PMS5003;58557;50.982;-3.222;2023-03-02T12:10:40;49;44;
70915;PMS5003;58557;50.982;-3.222;2023-03-02T12:13:16;39;36;
70915;PMS5003;58557;50.982;-3.222;2023-03-02T12:15:35;39;39;
70915;PMS5003;58557;50.982;-3.222;2023-03-02T12:17:55;43;39;
70915;PMS5003;58557;50.982;-3.222;2023-03-02T12:20:23;33;32;
70915;PMS5003;58557;50.982;-3.222;2023-03-02T12:22:46;45;42;
70915;PMS5003;58557;50.982;-3.222;2023-03-02T12:25:24;37;34;
70915;PMS5003;58557;50.982;-3.222;2023-03-02T12:27:38;49;41;
70915;PMS5003;58557;50.982;-3.222;2023-03-02T12:30:09;35;33;
70915;PMS5003;58557;50.982;-3.222;2023-03-02T12:32:33;42;35;
70915;PMS5003;58557;50.982;-3.222;2023-03-02T12:34:54;37;36;
70915;PMS5003;58557;50.982;-3.222;2023-03-02T12:37:20;37;34;
70915;PMS5003;58557;50.982;-3.222;2023-03-02T12:44:39;41;37;
70915;PMS5003;58557;50.982;-3.222;2023-03-02T12:47:00;46;41;
70915;PMS5003;58557;50.982;-3.222;2023-03-02T12:49:33;42;40;
70915;PMS5003;58557;50.982;-3.222;2023-03-02T12:51:51;43;40;
70915;PMS5003;58557;50.982;-3.222;2023-03-02T12:54:16;42;41;
70915;PMS5003;58557;50.982;-3.222;2023-03-02T12:56:47;46;40;
70915;PMS5003;58557;50.982;-3.222;2023-03-02T12:59:19;36;36;
70915;PMS5003;58557;50.982;-3.222;2023-03-02T13:01:32;52;45;
70915;PMS5003;58557;50.982;-3.222;2023-03-02T13:03:57;38;35;
70915;PMS5003;58557;50.982;-3.222;2023-03-02T13:06:29;40;35;
70915;PMS5003;58557;50.982;-3.222;2023-03-02T13:08:54;45;40;
70915;PMS5003;58557;50.982;-3.222;2023-03-02T13:13:39;47;41;
70915;PMS5003;58557;50.982;-3.222;2023-03-02T13:16:05;49;46;
70915;PMS5003;58557;50.982;-3.222;2023-03-02T13:18:30;44;40;
70915;PMS5003;58557;50.982;-3.222;2023-03-02T13:20:55;46;42;
70915;PMS5003;58557;50.982;-3.222;2023-03-02T13:23:21;36;33;
70915;PMS5003;58557;50.982;-3.222;2023-03-02T13:25:47;46;40;
70915;PMS5003;58557;50.982;-3.222;2023-03-02T13:30:37;49;43;
70915;PMS5003;58557;50.982;-3.222;2023-03-02T13:35:29;42;39;
70915;PMS5003;58557;50.982;-3.222;2023-03-02T13:38:00;50;41;
70915;PMS5003;58557;50.982;-3.222;2023-03-02T13:42:44;40;36;
70915;PMS5003;58557;50.982;-3.222;2023-03-02T13:47:35;43;41;
70915;PMS5003;58557;50.982;-3.222;2023-03-02T13:52:27;54;49;
70915;PMS5003;58557;50.982;-3.222;2023-03-02T13:54:56;53;43;
70915;PMS5003;58557;50.982;-3.222;2023-03-02T13:57:17;54;48;
70915;PMS5003;58557;50.982;-3.222;2023-03-02T13:59:42;46;44;
70915;PMS5003;58557;50.982;-3.222;2023-03-02T14:04:37;45;41;
70915;PMS5003;58557;50.982;-3.222;2023-03-02T14:07:03;47;44;
70915;PMS5003;58557;50.982;-3.222;2023-03-02T14:09:23;54;51;
70915;PMS5003;58557;50.982;-3.222;2023-03-02T14:11:54;56;45;
70915;PMS5003;58557;50.982;-3.222;2023-03-02T14:14:14;50;43;
70915;PMS5003;58557;50.982;-3.222;2023-03-02T14:16:39;45;42;
70915;PMS5003;58557;50.982;-3.222;2023-03-02T14:19:05;44;43;
70915;PMS5003;58557;50.982;-3.222;2023-03-02T14:21:31;50;47;
70915;PMS5003;58557;50.982;-3.222;2023-03-02T14:23:56;52;47;
70915;PMS5003;58557;50.982;-3.222;2023-03-02T14:26:31;47;38;
70915;PMS5003;58557;50.982;-3.222;2023-03-02T14:28:46;42;40;
70915;PMS5003;58557;50.982;-3.222;2023-03-02T14:31:12;61;51;
70915;PMS5003;58557;50.982;-3.222;2023-03-02T14:33:37;54;49;
70915;PMS5003;58557;50.982;-3.222;2023-03-02T14:36:03;53;51;
70915;PMS5003;58557;50.982;-3.222;2023-03-02T14:38:28;59;54;
70915;PMS5003;58557;50.982;-3.222;2023-03-02T14:40:53;61;48;
70915;PMS5003;58557;50.982;-3.222;2023-03-02T14:43:19;52;47;
70915;PMS5003;58557;50.982;-3.222;2023-03-02T14:45:50;60;47;
70915;PMS5003;58557;50.982;-3.222;2023-03-02T14:48:15;57;56;
70915;PMS5003;58557;50.982;-3.222;2023-03-02T14:50:38;49;44;
70915;PMS5003;58557;50.982;-3.222;2023-03-02T14:53:00;56;51;
70915;PMS5003;58557;50.982;-3.222;2023-03-02T14:55:31;48;45;
70915;PMS5003;58557;50.982;-3.222;2023-03-02T14:57:56;48;47;
70915;PMS5003;58557;50.982;-3.222;2023-03-02T15:00:22;48;43;
70915;PMS5003;58557;50.982;-3.222;2023-03-02T15:02:47;53;42;
70915;PMS5003;58557;50.982;-3.222;2023-03-02T15:05:08;53;48;
70915;PMS5003;58557;50.982;-3.222;2023-03-02T15:07:32;59;55;
70915;PMS5003;58557;50.982;-3.222;2023-03-02T15:09:57;51;45;
70915;PMS5003;58557;50.982;-3.222;2023-03-02T15:12:28;52;47;
70915;PMS5003;58557;50.982;-3.222;2023-03-02T15:14:48;58;52;
70915;PMS5003;58557;50.982;-3.222;2023-03-02T15:17:13;60;55;
70915;PMS5003;58557;50.982;-3.222;2023-03-02T15:19:39;53;51;
70915;PMS5003;58557;50.982;-3.222;2023-03-02T15:22:04;48;46;
70915;PMS5003;58557;50.982;-3.222;2023-03-02T15:24:29;56;49;
70915;PMS5003;58557;50.982;-3.222;2023-03-02T15:26:55;58;51;
70915;PMS5003;58557;50.982;-3.222;2023-03-02T15:29:21;49;46;
70915;PMS5003;58557;50.982;-3.222;2023-03-02T15:31:46;61;52;
70915;PMS5003;58557;50.982;-3.222;2023-03-02T15:34:11;54;50;
70915;PMS5003;58557;50.982;-3.222;2023-03-02T15:36:42;52;41;
70915;PMS5003;58557;50.982;-3.222;2023-03-02T15:39:03;52;47;
70915;PMS5003;58557;50.982;-3.222;2023-03-02T15:41:27;50;48;
70915;PMS5003;58557;50.982;-3.222;2023-03-02T15:43:58;58;53;
70915;PMS5003;58557;50.982;-3.222;2023-03-02T15:46:23;53;48;
70915;PMS5003;58557;50.982;-3.222;2023-03-02T15:48:48;51;45;
70915;PMS5003;58557;50.982;-3.222;2023-03-02T15:51:13;47;46;
70915;PMS5003;58557;50.982;-3.222;2023-03-02T15:53:34;52;46;
70915;PMS5003;58557;50.982;-3.222;2023-03-02T15:56:02;59;54;
70915;PMS5003;58557;50.982;-3.222;2023-03-02T15:58:26;52;47;
70915;PMS5003;58557;50.982;-3.222;2023-03-02T16:00:56;49;45;
70915;PMS5003;58557;50.982;-3.222;2023-03-02T16:03:22;57;47;
70915;PMS5003;58557;50.982;-3.222;2023-03-02T16:05:43;48;45;
70915;PMS5003;58557;50.982;-3.222;2023-03-02T16:08:08;47;44;
70915;PMS5003;58557;50.982;-3.222;2023-03-02T16:10:33;52;45;
70915;PMS5003;58557;50.982;-3.222;2023-03-02T16:12:59;39;37;
70915;PMS5003;58557;50.982;-3.222;2023-03-02T16:15:23;47;40;
70915;PMS5003;58557;50.982;-3.222;2023-03-02T16:17:49;45;39;
70915;PMS5003;58557;50.982;-3.222;2023-03-02T16:20:15;38;32;
70915;PMS5003;58557;50.982;-3.222;2023-03-02T16:22:39;40;37;
70915;PMS5003;58557;50.982;-3.222;2023-03-02T16:25:05;40;35;